In Rescue
 
Open Full Screen Window  High Contrast Mode
Wind Gusting 00 knots
03
October 19, 2020 8:36 PM EDT
Weather Information
Wind Direction
  360 °
Wind Speed
  03 kt (3 mph)
Wind Gust
  00 kt (0 mph)
Altimeter
30.13 in
Visibility
2 1/2 SM
Temperature
11° C
52° F
Dewpoint
10° C
50° F
Humidity
94%
1hr Rain Fall
00.01 in.
24hr Rain Fall
00.69 in.
Sky Condition
Overcast @ 700 ft
Broken @ 300 ft
LIFR

METAR KMRT 200036Z AUTO 36003KT 2 1/2SM BKN003 OVC007 11/10 A3013 RMK AO2 P0001 T01050100

FAA Disclaimer: The data displayed is for advisory purposes only and is not to be used for flight planning or operations.